Time;durP1;ratioP1;P1;durP2;ratioP2;P2;SDS_P1;SDS_P2;PMS_P1;PMS_P2;Temp;Humidity;BMP_temperature;BMP_pressure;BME280_temperature;BME280_humidity;BME280_pressure;Samples;Min_cycle;Max_cycle;Signal;HPM_P1;HPM_P2
2023/08/07 00:02:19;;;;;;;11.77;8.80;;;;;;;23.08;92.25;100538.25;10535040;28;20070;-76
2023/08/07 00:07:24;;;;;;;10.77;8.90;;;;;;;23.06;92.33;100540.56;10538846;28;20047;-76
2023/08/07 00:12:27;;;;;;;11.70;8.18;;;;;;;23.09;92.09;100536.25;10529190;28;20419;-76
2023/08/07 00:17:29;;;;;;;11.27;8.63;;;;;;;23.06;92.27;100534.97;10521203;28;20052;-76
2023/08/07 00:22:36;;;;;;;13.13;8.57;;;;;;;23.07;91.39;100532.97;10505890;28;20043;-76
2023/08/07 00:27:39;;;;;;;14.60;10.52;;;;;;;23.08;90.97;100538.25;10500693;28;20457;-76
2023/08/07 00:32:41;;;;;;;15.20;10.57;;;;;;;23.07;91.29;100533.78;10506707;28;20414;-75
2023/08/07 00:37:44;;;;;;;12.95;9.43;;;;;;;23.06;90.66;100534.97;10525869;28;20059;-75
2023/08/07 00:42:46;;;;;;;13.27;10.45;;;;;;;23.05;90.75;100538.94;10487783;28;20048;-75
2023/08/07 00:47:51;;;;;;;13.20;8.98;;;;;;;23.07;90.11;100536.59;10502763;28;20056;-76
2023/08/07 00:52:53;;;;;;;11.90;8.85;;;;;;;23.05;90.38;100529.75;10507263;28;20047;-76
2023/08/07 00:57:57;;;;;;;12.10;8.52;;;;;;;23.04;91.09;100528.94;10490094;28;20048;-76
2023/08/07 01:03:25;;;;;;;13.55;11.05;;;;;;;22.97;90.18;100531.59;10491971;28;20107;-75
2023/08/07 01:08:27;;;;;;;;;;;;;;;22.95;91.30;100522.75;10526334;28;20044;-75
2023/08/07 01:13:31;;;;;;;15.40;11.38;;;;;;;22.92;90.59;100517.91;10519889;28;20394;-76
2023/08/07 01:18:34;;;;;;;15.80;10.90;;;;;;;22.89;90.36;100513.03;10506776;28;20557;-76
2023/08/07 01:23:37;;;;;;;12.88;9.52;;;;;;;22.92;90.95;100519.91;10507392;28;20485;-75
2023/08/07 01:29:05;;;;;;;16.15;10.40;;;;;;;22.86;90.22;100508.97;10532120;28;20553;-75
2023/08/07 01:34:10;;;;;;;17.67;9.57;;;;;;;22.90;90.02;100509.03;10503433;28;20056;-75
2023/08/07 01:39:15;;;;;;;13.33;10.47;;;;;;;22.93;89.96;100513.94;10494022;28;20060;-77
2023/08/07 01:44:18;;;;;;;12.07;9.23;;;;;;;22.88;90.20;100510.59;10505668;28;20455;-75
2023/08/07 01:49:20;;;;;;;10.85;8.10;;;;;;;22.86;89.71;100508.16;10471449;28;20056;-76
2023/08/07 01:54:23;;;;;;;12.23;9.30;;;;;;;22.86;89.90;100508.16;10524333;28;20411;-75
2023/08/07 01:59:30;;;;;;;13.38;9.85;;;;;;;22.83;90.04;100509.72;10526226;28;20045;-76
2023/08/07 02:04:38;;;;;;;17.10;10.43;;;;;;;22.81;90.56;100514.03;10501033;28;20067;-75
2023/08/07 02:09:40;;;;;;;13.18;10.18;;;;;;;22.82;89.90;100501.69;10508726;28;20044;-75
2023/08/07 02:14:44;;;;;;;15.45;10.32;;;;;;;22.81;90.31;100502.84;10511809;28;20041;-76
2023/08/07 02:19:46;;;;;;;12.25;8.95;;;;;;;22.83;89.18;100500.50;10501180;28;20490;-76
2023/08/07 02:24:54;;;;;;;15.70;10.25;;;;;;;23.00;87.61;100507.66;10511844;28;20037;-75
2023/08/07 02:29:56;;;;;;;16.00;10.05;;;;;;;23.11;87.06;100503.91;10494024;28;20053;-76
2023/08/07 02:35:00;;;;;;;13.98;10.43;;;;;;;23.31;86.58;100513.09;10510970;28;20040;-76
2023/08/07 02:40:02;;;;;;;17.80;10.75;;;;;;;23.17;87.09;100508.03;10476317;28;20045;-76
2023/08/07 02:45:05;;;;;;;12.10;9.10;;;;;;;23.07;87.35;100505.81;10523825;28;20043;-76
2023/08/07 02:50:08;;;;;;;15.63;10.15;;;;;;;22.98;86.89;100502.44;10490926;28;20040;-76
2023/08/07 02:55:11;;;;;;;13.57;8.18;;;;;;;23.19;87.01;100507.66;10491144;28;20040;-76
2023/08/07 03:00:14;;;;;;;13.48;9.63;;;;;;;23.69;84.49;100501.03;10524502;28;20052;-76
2023/08/07 03:05:17;;;;;;;13.25;9.80;;;;;;;24.02;81.92;100502.38;10486751;28;20526;-76
2023/08/07 03:10:20;;;;;;;12.75;10.50;;;;;;;24.11;80.77;100504.91;10526131;28;20048;-76
2023/08/07 03:15:23;;;;;;;12.10;8.93;;;;;;;24.23;80.70;100501.91;10518053;28;20056;-76
2023/08/07 03:20:30;;;;;;;8.40;6.32;;;;;;;24.83;78.07;100511.22;10523945;28;20442;-75
2023/08/07 03:25:32;;;;;;;11.95;9.75;;;;;;;24.80;77.07;100500.75;10506328;28;20064;-76
2023/08/07 03:30:35;;;;;;;12.23;8.77;;;;;;;25.24;75.61;100488.88;10487513;28;20039;-75
2023/08/07 03:35:37;;;;;;;12.73;9.60;;;;;;;25.66;73.23;100496.13;10493774;28;20060;-76
2023/08/07 03:40:40;;;;;;;11.98;9.15;;;;;;;25.63;72.53;100489.28;10490665;28;20045;-75
2023/08/07 03:45:44;;;;;;;11.98;8.48;;;;;;;25.71;72.90;100476.97;10489229;28;20040;-74
2023/08/07 03:50:46;;;;;;;13.13;9.07;;;;;;;26.10;70.50;100484.91;10482134;28;20454;-75
2023/08/07 03:55:51;;;;;;;13.20;9.15;;;;;;;26.54;69.32;100484.81;10520232;28;20044;-75
2023/08/07 04:00:56;;;;;;;13.57;8.45;;;;;;;26.76;67.74;100479.31;10482834;28;20949;-75
2023/08/07 04:06:00;;;;;;;11.77;8.65;;;;;;;26.49;69.26;100465.50;10514758;28;20036;-75
2023/08/07 04:11:04;;;;;;;11.27;8.18;;;;;;;27.43;65.84;100468.28;10518371;28;20036;-75
2023/08/07 04:16:07;;;;;;;15.80;10.00;;;;;;;26.81;66.14;100473.28;10492975;28;20040;-75
2023/08/07 04:21:09;;;;;;;13.02;9.88;;;;;;;26.85;66.37;100483.34;10479154;28;20562;-75
2023/08/07 04:26:11;;;;;;;9.93;8.30;;;;;;;26.77;67.35;100464.84;10502482;28;20498;-75
2023/08/07 04:31:14;;;;;;;11.80;8.77;;;;;;;26.96;66.58;100469.34;10508909;28;20032;-75
2023/08/07 04:36:16;;;;;;;13.25;9.75;;;;;;;27.12;65.97;100461.38;10530127;28;20036;-75
2023/08/07 04:41:18;;;;;;;11.88;7.85;;;;;;;27.32;64.25;100464.63;10524874;28;20041;-75
2023/08/07 04:46:21;;;;;;;11.35;7.63;;;;;;;27.97;62.98;100465.53;10507239;28;20032;-75
2023/08/07 04:51:23;;;;;;;15.18;9.43;;;;;;;28.09;62.03;100467.91;10526087;28;20040;-73
2023/08/07 04:56:25;;;;;;;9.50;8.05;;;;;;;28.44;61.13;100439.66;10520060;28;20455;-73
2023/08/07 05:01:27;;;;;;;12.93;8.15;;;;;;;27.67;63.27;100449.81;10539593;28;20154;-73
2023/08/07 05:06:29;;;;;;;11.15;6.82;;;;;;;27.76;62.30;100447.38;10524127;28;20052;-73
2023/08/07 05:11:31;;;;;;;11.65;9.13;;;;;;;28.36;60.78;100459.84;10534888;28;20055;-73
2023/08/07 05:16:34;;;;;;;11.15;8.85;;;;;;;28.20;61.07;100448.97;10505307;28;20388;-73
2023/08/07 05:21:36;;;;;;;13.90;8.15;;;;;;;28.49;60.06;100452.56;10496608;28;20059;-73
2023/08/07 05:26:38;;;;;;;10.23;8.93;;;;;;;28.96;57.90;100458.84;10544870;28;20052;-73
2023/08/07 05:31:40;;;;;;;9.70;7.30;;;;;;;29.37;58.12;100434.41;10523031;28;20037;-73
2023/08/07 05:36:42;;;;;;;9.98;8.10;;;;;;;29.21;57.33;100445.41;10491081;28;20047;-73
2023/08/07 05:41:45;;;;;;;9.25;7.05;;;;;;;29.82;56.21;100440.13;10491767;28;20037;-73
2023/08/07 05:46:47;;;;;;;8.27;6.22;;;;;;;29.69;56.32;100433.38;10507151;28;20067;-73
2023/08/07 05:51:49;;;;;;;8.30;6.93;;;;;;;29.96;55.31;100439.19;10493366;28;20032;-73
2023/08/07 05:56:51;;;;;;;9.45;7.72;;;;;;;29.75;55.37;100436.56;10510045;28;20418;-73
2023/08/07 06:01:54;;;;;;;9.40;6.57;;;;;;;30.04;55.33;100425.81;10528906;28;20055;-73
2023/08/07 06:06:56;;;;;;;9.63;6.20;;;;;;;30.50;53.89;100426.13;10530646;28;20051;-73
2023/08/07 06:11:58;;;;;;;7.07;6.38;;;;;;;30.76;53.83;100415.31;10530454;28;20028;-73
2023/08/07 06:17:01;;;;;;;8.00;7.20;;;;;;;31.05;52.34;100427.06;10529588;28;20055;-73
2023/08/07 06:22:04;;;;;;;7.45;6.25;;;;;;;31.04;52.05;100414.13;10529445;28;20044;-73
2023/08/07 06:27:06;;;;;;;11.93;7.07;;;;;;;31.14;50.96;100413.16;10528716;28;20047;-73
2023/08/07 06:32:10;;;;;;;10.35;7.40;;;;;;;30.41;53.08;100405.22;10523177;28;20033;-73
2023/08/07 06:37:12;;;;;;;11.70;6.75;;;;;;;30.84;51.94;100403.47;10494422;28;20055;-73
2023/08/07 06:42:14;;;;;;;9.10;7.13;;;;;;;31.46;51.50;100402.19;10511223;28;20491;-73
2023/08/07 06:47:19;;;;;;;9.15;6.55;;;;;;;31.71;50.14;100400.94;10512005;28;20049;-73
2023/08/07 06:52:21;;;;;;;8.07;6.63;;;;;;;31.11;51.85;100380.00;10528714;28;20040;-73
2023/08/07 06:57:23;;;;;;;8.73;6.38;;;;;;;31.10;51.54;100384.09;10521753;28;20064;-73
2023/08/07 07:02:26;;;;;;;7.10;6.10;;;;;;;31.75;50.22;100384.69;10503910;28;20041;-73
2023/08/07 07:07:28;;;;;;;11.18;6.47;;;;;;;33.24;47.63;100386.53;10528658;28;20040;-73
2023/08/07 07:12:30;;;;;;;10.40;6.45;;;;;;;32.82;47.88;100385.47;10526878;28;20044;-76
2023/08/07 07:17:32;;;;;;;7.35;6.65;;;;;;;32.74;47.22;100381.94;10524718;28;20059;-76
2023/08/07 07:22:35;;;;;;;12.50;6.95;;;;;;;32.53;47.35;100385.25;10527770;28;20048;-76
2023/08/07 07:27:39;;;;;;;7.30;6.38;;;;;;;31.90;49.22;100368.19;10527962;28;20045;-77
2023/08/07 07:32:41;;;;;;;6.47;5.43;;;;;;;32.41;47.29;100375.34;10506660;28;20071;-76
2023/08/07 07:37:43;;;;;;;9.60;7.00;;;;;;;33.06;46.29;100361.34;10530042;28;20041;-76
2023/08/07 07:42:45;;;;;;;7.07;6.38;;;;;;;32.88;45.62;100363.81;10509823;28;20055;-76
2023/08/07 07:47:48;;;;;;;12.23;6.13;;;;;;;31.86;48.02;100362.59;10521758;28;20515;-76
2023/08/07 07:52:50;;;;;;;8.23;6.50;;;;;;;31.60;48.90;100358.59;10521735;28;20040;-76
2023/08/07 07:57:53;;;;;;;8.93;6.38;;;;;;;32.76;46.66;100348.19;10525730;28;20055;-76
2023/08/07 08:02:57;;;;;;;8.40;6.32;;;;;;;33.40;45.05;100354.47;10508125;28;20071;-76
2023/08/07 08:08:01;;;;;;;7.57;6.80;;;;;;;33.41;45.12;100339.00;10510235;28;20043;-76
2023/08/07 08:13:03;;;;;;;8.35;6.55;;;;;;;32.95;45.35;100350.22;10513652;28;20410;-76
2023/08/07 08:18:06;;;;;;;6.93;5.80;;;;;;;33.24;44.70;100347.50;10526447;28;20502;-76
2023/08/07 08:23:08;;;;;;;6.43;5.82;;;;;;;33.71;43.52;100347.16;10527683;28;20047;-75
2023/08/07 08:28:11;;;;;;;8.00;6.50;;;;;;;33.18;44.66;100337.91;10527224;28;20033;-77
2023/08/07 08:33:14;;;;;;;10.52;6.43;;;;;;;32.30;45.95;100335.81;10527949;28;20049;-77
2023/08/07 08:38:17;;;;;;;10.88;6.60;;;;;;;31.93;46.34;100338.94;10537360;28;20155;-79
2023/08/07 08:43:19;;;;;;;17.90;5.90;;;;;;;32.67;45.67;100326.09;10500425;28;20448;-80
2023/08/07 08:48:23;;;;;;;11.35;6.25;;;;;;;32.53;46.10;100337.75;10509330;28;20506;-79
2023/08/07 08:53:26;;;;;;;8.40;6.60;;;;;;;32.37;45.30;100317.81;10517090;28;20037;-76
2023/08/07 08:58:29;;;;;;;7.50;6.70;;;;;;;32.21;44.97;100343.28;10494180;28;20049;-76
2023/08/07 09:03:32;;;;;;;8.43;6.10;;;;;;;32.23;45.98;100326.59;10505332;28;20037;-76
2023/08/07 09:08:36;;;;;;;7.47;6.78;;;;;;;32.77;44.40;100323.41;10532087;28;20063;-81
2023/08/07 09:13:40;;;;;;;8.18;6.82;;;;;;;32.25;45.80;100319.25;10515974;28;20041;-75
2023/08/07 09:18:43;;;;;;;8.90;7.00;;;;;;;32.51;45.26;100317.50;10524032;28;20044;-75
2023/08/07 09:23:45;;;;;;;8.98;6.53;;;;;;;32.19;44.95;100345.75;10561341;28;20596;-74
2023/08/07 09:28:48;;;;;;;8.27;6.28;;;;;;;32.73;45.01;100295.09;10575550;28;20410;-79
2023/08/07 09:33:50;;;;;;;8.13;5.80;;;;;;;31.67;46.30;100301.72;10499131;28;20056;-78
2023/08/07 09:38:52;;;;;;;11.82;5.53;;;;;;;31.17;47.28;100298.91;10498726;28;20071;-74
2023/08/07 09:43:55;;;;;;;9.90;5.65;;;;;;;30.58;48.46;100297.38;10550001;28;20509;-75
2023/08/07 09:48:59;;;;;;;7.05;5.47;;;;;;;30.23;49.35;100286.53;10513700;28;20040;-75
2023/08/07 09:54:02;;;;;;;7.15;5.03;;;;;;;30.26;48.81;100269.50;10534299;28;20040;-74
2023/08/07 09:59:05;;;;;;;6.93;6.07;;;;;;;30.42;48.43;100296.41;10528480;28;20032;-74
2023/08/07 10:04:08;;;;;;;7.20;5.32;;;;;;;30.46;48.00;100275.28;10521442;28;20040;-74
2023/08/07 10:09:10;;;;;;;5.53;4.70;;;;;;;30.23;48.16;100253.38;10506150;28;20052;-74
2023/08/07 10:14:13;;;;;;;6.97;5.55;;;;;;;30.40;47.55;100271.34;10514830;28;20044;-74
2023/08/07 10:19:15;;;;;;;5.60;4.43;;;;;;;30.41;48.79;100257.97;10487933;28;20079;-75
2023/08/07 10:24:19;;;;;;;7.68;5.47;;;;;;;30.32;48.41;100238.69;10503729;28;20521;-75
2023/08/07 10:29:23;;;;;;;11.00;5.88;;;;;;;30.18;48.38;100236.84;10528177;28;20037;-74
2023/08/07 10:34:29;;;;;;;7.65;4.82;;;;;;;30.19;48.24;100232.78;10493938;28;20063;-74
2023/08/07 10:39:31;;;;;;;7.10;4.73;;;;;;;30.18;47.57;100238.88;10522178;28;20526;-74
2023/08/07 10:44:47;;;;;;;6.07;3.45;;;;;;;30.42;46.62;100237.72;10517218;28;20419;-75
2023/08/07 10:49:50;;;;;;;5.13;4.13;;;;;;;30.50;46.75;100266.75;10501172;28;20049;-75
2023/08/07 10:54:54;;;;;;;4.68;4.22;;;;;;;30.46;45.92;100220.69;10518648;28;20122;-76
2023/08/07 10:59:56;;;;;;;4.07;3.67;;;;;;;30.41;45.10;100221.19;10527074;28;20045;-75
2023/08/07 11:04:58;;;;;;;8.00;3.97;;;;;;;30.41;44.45;100252.31;10495620;28;20052;-75
2023/08/07 11:10:01;;;;;;;5.20;2.97;;;;;;;30.47;44.71;100196.81;10524903;28;20051;-74
2023/08/07 11:15:03;;;;;;;6.82;4.13;;;;;;;30.53;44.64;100214.91;10554367;28;20052;-74
2023/08/07 11:20:06;;;;;;;4.78;3.63;;;;;;;30.72;43.15;100205.75;10525729;28;20833;-75
2023/08/07 11:25:10;;;;;;;3.65;3.20;;;;;;;30.58;42.57;100189.75;10509594;28;20040;-74
2023/08/07 11:30:13;;;;;;;3.58;3.03;;;;;;;30.59;42.24;100188.53;10526933;28;20042;-74
2023/08/07 11:35:21;;;;;;;4.22;3.28;;;;;;;30.82;41.85;100182.09;10521049;28;20039;-75
2023/08/07 11:40:23;;;;;;;5.47;3.55;;;;;;;30.85;43.06;100184.06;10529905;28;20079;-74
2023/08/07 11:45:26;;;;;;;3.15;2.85;;;;;;;30.73;42.75;100170.53;10559164;28;20501;-75
2023/08/07 11:50:28;;;;;;;3.28;2.97;;;;;;;30.64;42.93;100175.94;10519682;28;20068;-75
2023/08/07 11:55:30;;;;;;;3.92;3.53;;;;;;;30.89;43.13;100176.34;10515563;28;20052;-75
2023/08/07 12:00:38;;;;;;;3.75;3.40;;;;;;;31.00;42.22;100169.66;10513677;28;20041;-75
2023/08/07 12:05:43;;;;;;;3.60;3.28;;;;;;;30.93;42.31;100164.94;10502294;28;20040;-75
2023/08/07 12:10:49;;;;;;;4.38;3.28;;;;;;;30.88;41.19;100180.38;10500565;28;20051;-74
2023/08/07 12:15:54;;;;;;;4.75;3.22;;;;;;;30.83;42.43;100151.75;10511275;28;20036;-74
2023/08/07 12:21:06;;;;;;;5.53;3.50;;;;;;;30.99;41.77;100123.53;10507692;28;20044;-74
2023/08/07 12:26:08;;;;;;;4.00;2.90;;;;;;;30.83;42.93;100124.22;10531623;28;20537;-75
2023/08/07 12:31:10;;;;;;;4.38;3.90;;;;;;;30.76;43.65;100120.72;10522914;28;20513;-75
2023/08/07 12:36:16;;;;;;;6.85;3.47;;;;;;;30.78;43.68;100087.88;10502923;28;20040;-75
2023/08/07 12:41:18;;;;;;;5.37;3.40;;;;;;;30.86;43.57;100089.34;10506600;28;20049;-74
2023/08/07 12:46:21;;;;;;;6.40;3.58;;;;;;;30.83;43.15;100089.41;10505449;28;20044;-75
2023/08/07 12:51:23;;;;;;;5.03;3.67;;;;;;;30.73;43.45;100088.38;10519631;28;20048;-74
2023/08/07 12:56:25;;;;;;;3.85;3.53;;;;;;;30.65;43.36;100069.91;10516983;28;20044;-74
2023/08/07 13:01:27;;;;;;;4.13;3.65;;;;;;;30.66;43.54;100088.50;10498270;28;20044;-74
2023/08/07 13:06:30;;;;;;;5.60;3.63;;;;;;;30.79;43.20;100080.19;10513160;28;20060;-75
2023/08/07 13:11:32;;;;;;;4.30;3.17;;;;;;;30.83;42.75;100095.88;10510775;28;20036;-75
2023/08/07 13:16:34;;;;;;;4.35;3.08;;;;;;;30.86;42.20;100061.00;10519273;28;20044;-75
2023/08/07 13:21:36;;;;;;;4.32;3.67;;;;;;;30.82;42.77;100051.78;10500735;28;20040;-75
2023/08/07 13:26:44;;;;;;;5.70;3.70;;;;;;;30.98;42.23;100041.78;10515880;28;20044;-74
2023/08/07 13:31:46;;;;;;;3.95;2.75;;;;;;;31.01;42.23;100058.69;10503364;28;20043;-75
2023/08/07 13:36:50;;;;;;;5.50;3.40;;;;;;;30.84;42.92;100046.47;10519569;28;20388;-74
2023/08/07 13:41:52;;;;;;;3.45;3.15;;;;;;;30.81;42.75;100033.19;10504450;28;20040;-75
2023/08/07 13:46:55;;;;;;;3.92;3.30;;;;;;;30.86;42.68;100038.34;10514413;28;20043;-74
2023/08/07 13:51:58;;;;;;;4.65;2.63;;;;;;;30.89;42.53;100012.00;10524066;28;20044;-75
2023/08/07 13:57:00;;;;;;;5.38;3.80;;;;;;;30.81;42.40;100018.22;10497723;28;20052;-74
2023/08/07 14:02:03;;;;;;;4.10;3.40;;;;;;;30.77;42.63;100009.81;10505408;28;20041;-74
2023/08/07 14:07:06;;;;;;;4.72;3.35;;;;;;;30.77;42.99;99989.97;10520278;28;20529;-73
2023/08/07 14:12:08;;;;;;;4.40;3.50;;;;;;;30.84;42.88;100004.00;10519840;28;20052;-74
2023/08/07 14:17:10;;;;;;;3.90;3.53;;;;;;;30.80;43.03;99979.81;10526569;28;20044;-74
2023/08/07 14:22:13;;;;;;;5.85;3.55;;;;;;;30.73;42.99;99979.97;10527603;28;20091;-73
2023/08/07 14:27:15;;;;;;;6.47;3.47;;;;;;;30.80;42.68;99968.47;10499711;28;20048;-73
2023/08/07 14:32:17;;;;;;;5.68;3.90;;;;;;;30.71;43.07;99966.19;10521099;28;20045;-74
2023/08/07 14:37:25;;;;;;;5.55;3.72;;;;;;;30.78;43.40;99963.25;10523293;28;20403;-73
2023/08/07 14:42:27;;;;;;;5.18;3.60;;;;;;;30.55;43.93;99934.97;10518443;28;20044;-74
2023/08/07 14:47:29;;;;;;;3.60;3.15;;;;;;;30.55;43.78;99940.63;10534722;28;20036;-74
2023/08/07 14:52:32;;;;;;;4.45;4.05;;;;;;;30.55;43.41;99932.94;10537956;28;20043;-74
2023/08/07 14:57:34;;;;;;;4.78;3.88;;;;;;;30.49;43.69;99945.97;10528811;28;20040;-74
2023/08/07 15:02:37;;;;;;;4.00;3.60;;;;;;;30.46;43.46;99938.34;10527928;28;20067;-74
2023/08/07 15:07:39;;;;;;;2.75;2.55;;;;;;;30.45;43.20;99947.28;10528590;28;20043;-74
2023/08/07 15:12:46;;;;;;;4.20;3.80;;;;;;;30.44;43.95;99951.34;10510956;28;20040;-74
2023/08/07 15:17:50;;;;;;;4.90;3.58;;;;;;;30.28;45.48;99916.03;10527722;28;20056;-73
2023/08/07 15:22:52;;;;;;;6.18;4.18;;;;;;;30.14;46.13;99913.47;10514880;28;20037;-73
2023/08/07 15:27:58;;;;;;;4.00;3.20;;;;;;;30.11;45.93;99924.88;10489742;28;20508;-73
2023/08/07 15:33:01;;;;;;;8.95;5.00;;;;;;;30.10;46.07;99920.44;10499329;28;20068;-73
2023/08/07 15:38:03;;;;;;;4.97;3.83;;;;;;;30.02;45.99;99936.69;10494984;28;20052;-72
2023/08/07 15:43:11;;;;;;;5.20;4.32;;;;;;;30.00;45.73;99927.84;10523721;28;20040;-72
2023/08/07 15:48:13;;;;;;;6.00;3.67;;;;;;;29.83;45.94;99935.41;10513452;28;20482;-72
2023/08/07 15:53:15;;;;;;;5.05;3.63;;;;;;;29.90;45.97;99917.53;10467501;28;20561;-73
2023/08/07 15:58:18;;;;;;;5.25;3.97;;;;;;;29.81;46.17;99923.72;10499247;28;20044;-73
2023/08/07 16:03:22;;;;;;;3.90;3.10;;;;;;;29.77;45.83;99905.22;10521965;28;20529;-72
2023/08/07 16:08:24;;;;;;;5.00;3.70;;;;;;;29.67;46.74;99899.31;10525516;28;20526;-72
2023/08/07 16:13:26;;;;;;;4.00;3.60;;;;;;;29.62;46.15;99893.34;10525691;28;20048;-73
2023/08/07 16:18:28;;;;;;;6.88;4.28;;;;;;;29.61;46.48;99914.38;10501499;28;20053;-73
2023/08/07 16:23:34;;;;;;;5.88;4.28;;;;;;;29.54;46.42;99911.66;10493491;28;20407;-73
2023/08/07 16:28:36;;;;;;;6.00;3.58;;;;;;;29.53;46.03;99905.22;10522601;28;20047;-73
2023/08/07 16:33:38;;;;;;;4.45;3.15;;;;;;;29.46;46.55;99899.66;10491049;28;20037;-73
2023/08/07 16:38:48;;;;;;;2.25;1.98;;;;;;;29.35;46.73;99901.84;10521576;28;20041;-73
2023/08/07 16:43:51;;;;;;;5.38;3.78;;;;;;;29.32;47.09;99894.19;10504579;28;20423;-74
2023/08/07 16:48:53;;;;;;;3.80;3.13;;;;;;;29.26;47.71;99893.06;10487252;28;20052;-74
2023/08/07 16:53:55;;;;;;;4.75;3.10;;;;;;;29.12;47.66;99892.06;10509414;28;20410;-73
2023/08/07 16:58:58;;;;;;;6.05;3.78;;;;;;;29.06;48.45;99899.41;10524551;28;20048;-73
2023/08/07 17:04:00;;;;;;;5.47;3.72;;;;;;;29.02;47.80;99892.22;10491943;28;20047;-73
2023/08/07 17:09:09;;;;;;;6.85;4.28;;;;;;;28.98;47.67;99936.63;10529648;28;20052;-72
2023/08/07 17:14:11;;;;;;;3.78;2.80;;;;;;;28.89;48.08;99906.09;10526046;28;20037;-72
2023/08/07 17:19:14;;;;;;;3.30;3.00;;;;;;;28.84;48.06;99903.72;10532788;28;20037;-73
2023/08/07 17:24:16;;;;;;;3.88;3.42;;;;;;;28.81;47.51;99898.91;10547278;28;20495;-72
2023/08/07 17:29:18;;;;;;;6.38;3.17;;;;;;;28.73;48.05;99905.88;10529280;28;20039;-73
2023/08/07 17:34:21;;;;;;;3.75;3.00;;;;;;;28.69;47.91;99917.22;10521356;28;20122;-73
2023/08/07 17:39:24;;;;;;;4.72;3.40;;;;;;;28.58;48.16;99918.56;10530306;28;20055;-72
2023/08/07 17:44:26;;;;;;;4.05;2.78;;;;;;;28.50;48.02;99913.00;10511213;28;20059;-72
2023/08/07 17:49:29;;;;;;;3.67;3.10;;;;;;;28.42;47.54;99919.94;10520863;28;20044;-72
2023/08/07 17:54:32;;;;;;;3.80;2.90;;;;;;;28.38;48.07;99910.72;10520377;28;20443;-72
2023/08/07 17:59:34;;;;;;;2.95;2.75;;;;;;;28.28;47.58;99908.81;10523613;28;20068;-73
2023/08/07 18:04:37;;;;;;;4.97;3.17;;;;;;;28.20;47.67;99907.25;10510559;28;20490;-72
2023/08/07 18:09:39;;;;;;;6.57;4.03;;;;;;;28.10;47.70;99908.94;10518161;28;20071;-72
2023/08/07 18:14:46;;;;;;;4.43;3.40;;;;;;;28.01;48.40;99913.50;10504472;28;20052;-72
2023/08/07 18:19:49;;;;;;;5.40;2.95;;;;;;;27.89;49.03;99924.06;10525738;28;20067;-74
2023/08/07 18:24:56;;;;;;;4.70;2.72;;;;;;;27.79;49.05;99907.25;10522388;28;20660;-73
2023/08/07 18:29:58;;;;;;;6.15;3.20;;;;;;;27.72;48.80;99924.22;10487399;28;20055;-71
2023/08/07 18:35:00;;;;;;;5.25;3.50;;;;;;;27.65;49.65;99913.81;10489481;28;20060;-71
2023/08/07 18:40:04;;;;;;;7.05;2.78;;;;;;;27.56;50.41;99916.25;10507622;28;20044;-70
2023/08/07 18:45:06;;;;;;;4.65;3.22;;;;;;;27.42;50.37;99916.34;10509026;28;20048;-71
2023/08/07 18:50:09;;;;;;;4.68;3.30;;;;;;;27.27;51.19;99915.66;10516852;28;20518;-71
2023/08/07 18:55:11;;;;;;;5.13;3.35;;;;;;;27.13;51.61;99907.28;10524890;28;20049;-71
2023/08/07 19:00:19;;;;;;;4.15;3.42;;;;;;;27.03;52.84;99900.50;10527449;28;20392;-71
2023/08/07 19:05:21;;;;;;;4.88;3.72;;;;;;;26.94;52.64;99900.13;10509033;28;20052;-71
2023/08/07 19:10:23;;;;;;;6.88;3.88;;;;;;;26.81;53.87;99901.81;10528687;28;20051;-71
2023/08/07 19:15:25;;;;;;;2.83;2.63;;;;;;;26.73;53.71;99904.66;10527937;28;20478;-71
2023/08/07 19:20:27;;;;;;;4.45;3.50;;;;;;;26.62;54.44;99891.81;10525930;28;20053;-71
2023/08/07 19:25:30;;;;;;;6.93;3.60;;;;;;;26.45;55.62;99887.88;10525098;28;20051;-70
2023/08/07 19:30:35;;;;;;;9.60;4.10;;;;;;;26.35;56.59;99874.63;10531894;28;20063;-71
2023/08/07 19:35:38;;;;;;;3.80;3.40;;;;;;;26.22;56.92;99885.50;10525829;28;20151;-72
2023/08/07 19:40:40;;;;;;;5.28;4.15;;;;;;;26.12;57.13;99880.69;10524362;28;20057;-73
2023/08/07 19:45:43;;;;;;;2.92;2.67;;;;;;;26.10;57.83;99883.13;10507043;28;20055;-72
2023/08/07 19:50:46;;;;;;;6.18;4.05;;;;;;;25.98;58.79;99881.50;10524924;28;20048;-73
2023/08/07 19:55:49;;;;;;;4.65;2.95;;;;;;;25.97;58.81;99874.28;10525800;28;20044;-72
2023/08/07 20:00:52;;;;;;;4.78;4.07;;;;;;;25.89;59.29;99869.91;10526850;28;20040;-72
2023/08/07 20:05:56;;;;;;;4.13;3.70;;;;;;;25.85;58.32;99857.84;10525701;28;20498;-72
2023/08/07 20:11:00;;;;;;;6.17;3.37;;;;;;;25.84;59.07;99859.84;10526413;28;20032;-72
2023/08/07 20:16:04;;;;;;;8.75;4.30;;;;;;;25.78;58.64;99860.66;10526404;28;20040;-72
2023/08/07 20:21:06;;;;;;;7.03;4.63;;;;;;;25.71;59.30;99841.81;10525042;28;20411;-72
2023/08/07 20:26:09;;;;;;;3.17;2.88;;;;;;;25.69;59.58;99840.63;10526227;28;20040;-72
2023/08/07 20:31:11;;;;;;;5.18;3.70;;;;;;;25.66;58.95;99836.53;10523935;28;20039;-72
2023/08/07 20:36:14;;;;;;;4.38;3.92;;;;;;;25.66;58.80;99846.97;10493328;28;20056;-72
2023/08/07 20:41:16;;;;;;;4.70;3.00;;;;;;;25.60;59.92;99823.31;10521744;28;20040;-72
2023/08/07 20:46:18;;;;;;;8.40;4.53;;;;;;;25.48;59.57;99819.69;10526114;28;20055;-72
2023/08/07 20:51:21;;;;;;;3.65;3.30;;;;;;;25.42;60.48;99818.50;10525152;28;20043;-72
2023/08/07 20:56:24;;;;;;;3.72;3.33;;;;;;;25.31;60.42;99814.88;10525018;28;20422;-71
2023/08/07 21:01:27;;;;;;;4.05;3.10;;;;;;;25.24;60.70;99815.69;10543005;28;20054;-72
2023/08/07 21:06:29;;;;;;;4.43;3.88;;;;;;;25.23;61.30;99810.50;10555690;28;20510;-71
2023/08/07 21:11:32;;;;;;;5.45;4.40;;;;;;;25.22;61.31;99800.47;10520969;28;20037;-71
2023/08/07 21:16:35;;;;;;;4.72;4.13;;;;;;;25.01;62.48;99795.63;10526253;28;20053;-71
2023/08/07 21:21:38;;;;;;;4.07;3.72;;;;;;;24.92;62.65;99801.59;10524997;28;20040;-72
2023/08/07 21:26:41;;;;;;;3.05;2.70;;;;;;;24.94;62.14;99812.41;10512425;28;20047;-73
2023/08/07 21:31:49;;;;;;;4.47;4.07;;;;;;;24.86;62.20;99808.81;10498895;28;20036;-75
2023/08/07 21:36:53;;;;;;;5.18;3.97;;;;;;;24.87;61.94;99795.59;10504900;28;20044;-75
2023/08/07 21:41:55;;;;;;;6.80;3.78;;;;;;;24.85;62.06;99809.22;10531198;28;20477;-74
2023/08/07 21:46:57;;;;;;;4.95;3.28;;;;;;;24.91;62.80;99804.81;10546992;28;20036;-75
2023/08/07 21:52:00;;;;;;;3.90;3.60;;;;;;;24.78;62.19;99795.94;10526361;28;20033;-74
2023/08/07 21:57:03;;;;;;;4.50;4.00;;;;;;;24.82;62.52;99799.59;10491055;28;20052;-75
2023/08/07 22:02:06;;;;;;;4.75;3.70;;;;;;;24.84;62.33;99799.19;10473073;28;20396;-75
2023/08/07 22:07:08;;;;;;;6.25;3.72;;;;;;;24.69;63.22;99794.75;10485313;28;20071;-75
2023/08/07 22:12:10;;;;;;;6.40;3.90;;;;;;;24.61;63.29;99789.09;10487929;28;20041;-74
2023/08/07 22:17:12;;;;;;;5.97;4.05;;;;;;;24.55;62.57;99770.25;10486162;28;20044;-74
2023/08/07 22:22:15;;;;;;;4.50;4.18;;;;;;;24.63;62.97;99775.47;10487498;28;20044;-74
2023/08/07 22:27:17;;;;;;;6.20;4.28;;;;;;;24.48;63.82;99761.84;10490042;28;20041;-75
2023/08/07 22:32:19;;;;;;;4.15;3.50;;;;;;;24.47;62.94;99765.81;10481984;28;20053;-75
2023/08/07 22:37:21;;;;;;;2.58;2.38;;;;;;;24.46;63.55;99741.78;10488936;28;20037;-74
2023/08/07 22:42:25;;;;;;;3.67;3.38;;;;;;;24.40;63.51;99743.38;10488055;28;20411;-74
2023/08/07 22:47:27;;;;;;;3.05;2.75;;;;;;;24.42;63.38;99719.34;10484889;28;20385;-74
2023/08/07 22:52:29;;;;;;;6.45;3.55;;;;;;;24.44;63.44;99739.38;10469086;28;20079;-74
2023/08/07 22:57:31;;;;;;;4.40;3.50;;;;;;;24.33;63.56;99741.34;10465148;28;20538;-73
2023/08/07 23:02:34;;;;;;;4.18;3.78;;;;;;;24.23;64.35;99775.72;10465446;28;20048;-73
2023/08/07 23:07:36;;;;;;;4.80;3.67;;;;;;;24.16;64.40;99716.84;10487979;28;20045;-73
2023/08/07 23:12:39;;;;;;;6.97;4.00;;;;;;;24.13;63.83;99731.66;10485499;28;20045;-74